createdAt,value
2019-02-16T00:01:01.582Z,164.40
2019-02-16T00:03:32.679Z,155.63
2019-02-16T00:06:02.995Z,162.68
2019-02-16T00:08:33.323Z,163.32
2019-02-16T00:11:03.686Z,159.22
2019-02-16T00:13:34.083Z,166.03
2019-02-16T00:16:05.070Z,167.47
2019-02-16T00:18:35.419Z,175.57
2019-02-16T00:21:05.692Z,174.95
2019-02-16T00:23:36.171Z,164.65
2019-02-16T00:26:06.474Z,176.78
2019-02-16T00:28:36.804Z,182.37
2019-02-16T00:31:07.125Z,168.87
2019-02-16T00:33:37.459Z,171.32
2019-02-16T00:36:07.676Z,171.15
2019-02-16T00:38:38.013Z,172.05
2019-02-16T00:41:08.293Z,175.68
2019-02-16T00:43:38.561Z,172.45
2019-02-16T00:46:08.635Z,182.60
2019-02-16T00:48:38.901Z,178.55
2019-02-16T00:51:13.696Z,177.57
2019-02-16T00:53:41.024Z,181.37
2019-02-16T00:56:11.143Z,181.30
2019-02-16T00:58:41.368Z,176.27
2019-02-16T01:01:11.573Z,178.05
2019-02-16T01:03:42.054Z,170.40
2019-02-16T01:06:12.651Z,178.55
2019-02-16T01:08:42.935Z,184.45
2019-02-16T01:11:13.142Z,177.38
2019-02-16T01:13:43.487Z,178.62
2019-02-16T01:16:13.792Z,171.72
2019-02-16T01:18:43.982Z,185.85
2019-02-16T01:21:22.588Z,190.53
2019-02-16T01:23:46.169Z,177.38
2019-02-16T01:26:16.443Z,183.03
2019-02-16T01:28:46.635Z,174.20
2019-02-16T01:31:16.916Z,173.97
2019-02-16T01:33:47.135Z,181.85
2019-02-16T01:36:17.548Z,172.50
2019-02-16T01:38:47.233Z,152.27
2019-02-16T01:41:17.686Z,165.10
2019-02-16T01:43:48.506Z,182.07
2019-02-16T01:46:18.839Z,171.47
2019-02-16T01:48:49.030Z,178.62
2019-02-16T01:51:19.298Z,171.02
2019-02-16T01:53:49.438Z,174.35
2019-02-16T01:56:19.693Z,173.65
2019-02-16T01:58:49.893Z,165.25
2019-02-16T02:01:20.665Z,175.57
2019-02-16T02:03:50.918Z,171.18
2019-02-16T02:06:22.193Z,173.32
2019-02-16T02:08:52.491Z,181.32
2019-02-16T02:11:22.691Z,183.40
2019-02-16T02:13:53.032Z,182.43
2019-02-16T02:16:23.154Z,180.25
2019-02-16T02:18:53.455Z,178.68
2019-02-16T02:21:23.795Z,158.65
2019-02-16T02:23:55.498Z,174.65
2019-02-16T02:26:25.692Z,173.25
2019-02-16T02:28:55.835Z,169.68
2019-02-16T02:31:26.048Z,167.57
2019-02-16T02:33:56.211Z,169.75
2019-02-16T02:36:26.677Z,167.77
2019-02-16T02:38:56.951Z,160.82
2019-02-16T02:41:27.276Z,159.97
2019-02-16T02:43:57.440Z,162.18
2019-02-16T02:46:27.665Z,162.65
2019-02-16T02:48:57.878Z,158.87
2019-02-16T02:51:28.147Z,156.43
2019-02-16T02:53:58.397Z,153.85
2019-02-16T02:56:28.637Z,158.18
2019-02-16T02:58:58.963Z,155.72
2019-02-16T03:01:29.232Z,157.45
2019-02-16T03:03:59.653Z,154.95
2019-02-16T03:06:30.820Z,158.37
2019-02-16T03:09:01.113Z,149.38
2019-02-16T03:11:31.738Z,151.12
2019-02-16T03:14:01.964Z,150.85
2019-02-16T03:16:32.204Z,155.22
2019-02-16T03:19:02.375Z,153.65
2019-02-16T03:21:32.606Z,143.30
2019-02-16T03:24:02.205Z,147.97
2019-02-16T03:26:35.449Z,138.35
2019-02-16T03:29:08.733Z,140.47
2019-02-16T03:32:06.038Z,145.00
2019-02-16T03:34:44.956Z,145.38
2019-02-16T03:37:21.127Z,149.35
2019-02-16T03:39:51.364Z,142.62
2019-02-16T03:42:21.559Z,146.85
2019-02-16T03:44:51.979Z,143.97
2019-02-16T03:47:22.211Z,152.32
2019-02-16T03:49:52.349Z,151.80
2019-02-16T03:52:22.550Z,148.13
2019-02-16T03:54:52.176Z,146.93
2019-02-16T03:57:22.428Z,156.50
2019-02-16T03:59:52.728Z,152.17
2019-02-16T04:02:22.974Z,157.15
2019-02-16T04:04:53.362Z,152.10
2019-02-16T04:07:24.508Z,163.10
2019-02-16T04:09:54.764Z,165.00
2019-02-16T04:12:24.912Z,166.00
2019-02-16T04:14:55.194Z,171.70
2019-02-16T04:17:25.406Z,166.43
2019-02-16T04:19:55.636Z,158.87
2019-02-16T04:22:25.780Z,175.07
2019-02-16T04:24:55.959Z,182.90
2019-02-16T04:27:26.183Z,170.95
2019-02-16T04:29:56.415Z,171.05
2019-02-16T04:32:26.625Z,171.60
2019-02-16T04:34:56.704Z,176.60
2019-02-16T04:37:26.964Z,174.15
2019-02-16T04:39:57.178Z,175.38
2019-02-16T04:42:27.394Z,181.22
2019-02-16T04:44:57.557Z,180.20
2019-02-16T04:47:27.179Z,181.43
2019-02-16T04:49:57.511Z,178.57
2019-02-16T04:52:34.349Z,181.18
2019-02-16T04:54:59.683Z,179.03
2019-02-16T04:57:29.964Z,175.07
2019-02-16T05:00:00.451Z,183.68
2019-02-16T05:02:30.798Z,177.68
2019-02-16T05:05:01.006Z,176.12
2019-02-16T05:07:32.235Z,168.00
2019-02-16T05:10:01.892Z,167.83
2019-02-16T05:12:32.154Z,180.78
2019-02-16T05:15:02.318Z,172.93
2019-02-16T05:17:32.710Z,169.87
2019-02-16T05:20:02.338Z,169.75
2019-02-16T05:22:32.575Z,168.68
2019-02-16T05:25:02.248Z,175.47
2019-02-16T05:27:32.577Z,170.38
2019-02-16T05:30:02.876Z,172.60
2019-02-16T05:32:33.085Z,172.25
2019-02-16T05:35:03.757Z,165.92
2019-02-16T05:37:34.230Z,164.40
2019-02-16T05:40:04.608Z,164.60
2019-02-16T05:42:34.896Z,168.55
2019-02-16T05:45:05.670Z,171.57
2019-02-16T05:47:35.461Z,165.47
2019-02-16T05:50:06.355Z,165.90
2019-02-16T05:52:35.935Z,167.57
2019-02-16T05:55:06.662Z,171.80
2019-02-16T05:57:36.925Z,164.35
2019-02-16T06:00:10.280Z,176.03
2019-02-16T06:02:39.923Z,161.00
2019-02-16T06:05:10.142Z,151.35
2019-02-16T06:07:41.317Z,155.37
2019-02-16T06:10:11.274Z,151.75
2019-02-16T06:12:41.824Z,136.30
2019-02-16T06:15:12.197Z,138.55
2019-02-16T06:17:42.425Z,138.47
2019-02-16T06:20:12.751Z,133.20
2019-02-16T06:22:42.890Z,128.55
2019-02-16T06:25:13.139Z,133.18
2019-02-16T06:27:43.363Z,139.18
2019-02-16T06:30:13.566Z,137.35
2019-02-16T06:32:43.699Z,130.70
2019-02-16T06:35:18.478Z,135.72
2019-02-16T06:37:48.183Z,136.45
2019-02-16T06:40:18.424Z,135.85
2019-02-16T06:42:48.619Z,134.10
2019-02-16T06:45:18.913Z,131.70
2019-02-16T06:47:48.791Z,126.70
2019-02-16T06:50:19.348Z,119.08
2019-02-16T06:52:49.705Z,106.10
2019-02-16T06:55:19.871Z,111.42
2019-02-16T06:57:51.073Z,118.13
2019-02-16T07:00:23.069Z,103.95
2019-02-16T07:02:53.202Z,111.00
2019-02-16T07:05:23.486Z,103.92
2019-02-16T07:07:54.653Z,117.77
2019-02-16T07:10:24.986Z,119.65
2019-02-16T07:12:55.293Z,91.15
2019-02-16T07:15:25.598Z,113.55
2019-02-16T07:17:57.615Z,128.50
2019-02-16T07:20:27.907Z,118.13
2019-02-16T07:22:58.158Z,119.05
2019-02-16T07:25:28.565Z,120.50
2019-02-16T07:27:58.815Z,107.67
2019-02-16T07:30:29.111Z,116.53
2019-02-16T07:32:59.322Z,122.33
2019-02-16T07:35:29.705Z,122.40
2019-02-16T07:37:59.943Z,132.20
2019-02-16T07:40:30.197Z,125.15
2019-02-16T07:43:00.425Z,121.87
2019-02-16T07:45:32.341Z,117.85
2019-02-16T07:48:13.118Z,117.33
2019-02-16T07:50:47.910Z,110.57
2019-02-16T07:53:31.408Z,122.60
2019-02-16T07:56:05.476Z,115.65
2019-02-16T07:58:46.243Z,115.65
2019-02-16T08:01:28.821Z,112.88
2019-02-16T08:04:03.543Z,108.17
2019-02-16T08:06:47.506Z,102.82
2019-02-16T08:09:26.479Z,95.32
2019-02-16T08:11:58.305Z,104.40
2019-02-16T08:14:30.195Z,102.07
2019-02-16T08:17:05.171Z,102.58
2019-02-16T08:19:39.698Z,104.70
2019-02-16T08:22:20.764Z,101.25
2019-02-16T08:25:01.536Z,97.08
2019-02-16T08:27:49.633Z,102.00
2019-02-16T08:30:21.427Z,96.60
2019-02-16T08:33:11.058Z,92.55
2019-02-16T08:35:58.968Z,95.20
2019-02-16T08:38:33.626Z,99.00
2019-02-16T08:41:11.555Z,93.52
2019-02-16T08:43:49.328Z,92.25
2019-02-16T08:46:21.229Z,85.07
2019-02-16T08:48:55.859Z,77.47
2019-02-16T08:51:39.574Z,77.62
2019-02-16T08:54:17.375Z,82.40
2019-02-16T08:56:55.170Z,70.25
2019-02-16T08:59:43.302Z,55.50
2019-02-16T09:02:18.039Z,50.05
2019-02-16T09:04:55.552Z,49.83
2019-02-16T09:07:27.396Z,50.70
2019-02-16T09:10:12.169Z,40.98
2019-02-16T09:12:44.027Z,52.73
2019-02-16T09:15:18.938Z,49.18
2019-02-16T09:17:50.954Z,43.02
2019-02-16T09:20:25.808Z,45.00
2019-02-16T09:23:03.668Z,44.27
2019-02-16T09:25:47.488Z,37.88
2019-02-16T09:28:22.522Z,44.80
2019-02-16T09:31:03.272Z,41.65
2019-02-16T09:33:38.176Z,37.75
2019-02-16T09:36:10.142Z,39.35
2019-02-16T09:38:42.032Z,40.33
2019-02-16T09:41:19.989Z,40.30
2019-02-16T09:44:07.125Z,34.70
2019-02-16T09:46:57.195Z,37.60
2019-02-16T09:49:32.040Z,38.28
2019-02-16T09:52:21.795Z,35.73
2019-02-16T09:54:56.431Z,33.63
2019-02-16T09:57:28.356Z,34.18
2019-02-16T10:00:05.919Z,32.73
2019-02-16T10:02:37.902Z,34.00
2019-02-16T10:05:12.379Z,31.27
2019-02-16T10:08:00.718Z,33.95
2019-02-16T10:10:33.398Z,30.08
2019-02-16T10:13:17.038Z,36.55
2019-02-16T10:15:55.011Z,30.60
2019-02-16T10:18:32.714Z,31.80
2019-02-16T10:21:04.580Z,31.97
2019-02-16T10:23:36.333Z,30.30
2019-02-16T10:26:20.039Z,26.97
2019-02-16T10:29:04.008Z,35.13
2019-02-16T10:31:38.983Z,33.08
2019-02-16T10:34:27.291Z,30.88
2019-02-16T10:37:04.698Z,33.08
2019-02-16T10:39:45.626Z,28.32
2019-02-16T10:42:34.030Z,31.10
2019-02-16T10:45:10.028Z,31.07
2019-02-16T10:47:54.115Z,32.13
2019-02-16T10:50:35.208Z,28.40
2019-02-16T10:53:10.043Z,30.08
2019-02-16T10:55:50.480Z,29.00
2019-02-16T10:58:38.817Z,32.55
2019-02-16T11:01:10.831Z,30.50
2019-02-16T11:03:52.040Z,32.13
2019-02-16T11:06:23.940Z,30.08
2019-02-16T11:09:07.943Z,29.82
2019-02-16T11:11:40.757Z,31.85
2019-02-16T11:14:15.942Z,30.72
2019-02-16T11:16:53.754Z,31.97
2019-02-16T11:19:34.807Z,31.90
2019-02-16T11:22:15.585Z,26.90
2019-02-16T11:24:53.444Z,33.75
2019-02-16T11:27:28.651Z,27.52
2019-02-16T11:30:03.866Z,30.12
2019-02-16T11:32:40.020Z,27.90
2019-02-16T11:35:20.882Z,30.72
2019-02-16T11:37:58.546Z,27.87
2019-02-16T11:40:32.803Z,29.55
2019-02-16T11:43:04.665Z,28.80
2019-02-16T11:45:36.563Z,26.75
2019-02-16T11:48:08.432Z,29.10
2019-02-16T11:50:40.549Z,24.95
2019-02-16T11:53:15.249Z,26.57
2019-02-16T11:56:02.260Z,28.65
2019-02-16T11:58:35.166Z,24.82
2019-02-16T12:01:22.245Z,28.87
2019-02-16T12:03:54.099Z,30.62
2019-02-16T12:06:35.307Z,27.87
2019-02-16T12:09:13.894Z,27.75
2019-02-16T12:11:46.758Z,27.95
2019-02-16T12:14:24.589Z,26.10
2019-02-16T12:16:56.452Z,24.47
2019-02-16T12:19:28.335Z,24.60
2019-02-16T12:22:02.963Z,24.25
2019-02-16T12:24:34.372Z,23.73
2019-02-16T12:27:11.317Z,27.22
2019-02-16T12:29:43.119Z,26.10
2019-02-16T12:32:14.980Z,29.20
2019-02-16T12:34:58.915Z,34.73
2019-02-16T12:37:31.229Z,24.32
2019-02-16T12:40:03.249Z,25.88
2019-02-16T12:42:44.314Z,20.48
2019-02-16T12:45:24.051Z,26.33
2019-02-16T12:48:02.015Z,29.12
2019-02-16T12:50:36.336Z,29.98
2019-02-16T12:53:08.095Z,30.75
2019-02-16T12:55:42.744Z,29.25
2019-02-16T12:58:17.150Z,28.67
2019-02-16T13:00:48.939Z,29.05
2019-02-16T13:03:20.751Z,30.92
2019-02-16T13:06:04.591Z,29.10
2019-02-16T13:08:41.750Z,29.95
2019-02-16T13:11:22.417Z,26.52
2019-02-16T13:14:10.429Z,28.67
2019-02-16T13:16:48.411Z,27.67
2019-02-16T13:19:30.672Z,25.95
2019-02-16T13:22:02.577Z,22.07
2019-02-16T13:24:34.457Z,24.45
2019-02-16T13:27:12.262Z,20.95
2019-02-16T13:29:50.342Z,23.22
2019-02-16T13:32:31.277Z,21.62
2019-02-16T13:35:19.364Z,23.57
2019-02-16T13:37:51.238Z,23.45
2019-02-16T13:40:23.107Z,24.35
2019-02-16T13:42:58.012Z,23.20
2019-02-16T13:45:29.808Z,24.82
2019-02-16T13:48:04.578Z,26.33
2019-02-16T13:50:38.672Z,25.83
2019-02-16T13:53:13.147Z,21.23
2019-02-16T13:55:44.667Z,22.27
2019-02-16T13:58:31.580Z,22.47
2019-02-16T14:01:03.239Z,22.10
2019-02-16T14:03:37.778Z,26.07
2019-02-16T14:06:16.477Z,23.43
2019-02-16T14:08:50.848Z,26.57
2019-02-16T14:11:22.731Z,23.15
2019-02-16T14:14:12.685Z,23.67
2019-02-16T14:16:45.456Z,23.92
2019-02-16T14:19:15.638Z,23.80
2019-02-16T14:21:45.878Z,26.40
2019-02-16T14:24:17.823Z,25.23
2019-02-16T14:26:47.730Z,27.25
2019-02-16T14:29:17.847Z,27.52
2019-02-16T14:31:48.060Z,25.05
2019-02-16T14:34:18.270Z,26.42
2019-02-16T14:36:48.602Z,25.00
2019-02-16T14:39:19.027Z,23.30
2019-02-16T14:41:49.360Z,23.38
2019-02-16T14:44:19.618Z,24.47
2019-02-16T14:46:49.798Z,21.60
2019-02-16T14:49:19.932Z,19.57
2019-02-16T14:51:50.142Z,21.75
2019-02-16T14:54:20.492Z,21.20
2019-02-16T14:56:50.972Z,22.35
2019-02-16T14:59:20.771Z,24.02
2019-02-16T15:01:50.954Z,21.45
2019-02-16T15:04:21.020Z,22.98
2019-02-16T15:06:51.223Z,24.45
2019-02-16T15:09:21.576Z,18.87
2019-02-16T15:11:51.817Z,24.32
2019-02-16T15:14:22.044Z,20.82
2019-02-16T15:16:53.429Z,23.65
2019-02-16T15:19:25.602Z,21.33
2019-02-16T15:21:55.375Z,22.77
2019-02-16T15:24:25.583Z,21.33
2019-02-16T15:26:55.736Z,21.55
2019-02-16T15:29:25.875Z,20.77
2019-02-16T15:31:56.071Z,22.75
2019-02-16T15:34:26.247Z,23.57
2019-02-16T15:36:56.461Z,26.93
2019-02-16T15:39:26.613Z,29.63
2019-02-16T15:41:56.971Z,28.67
2019-02-16T15:44:27.208Z,23.55
2019-02-16T15:46:57.645Z,23.38
2019-02-16T15:49:27.928Z,23.85
2019-02-16T15:51:58.165Z,26.48
2019-02-16T15:54:28.490Z,23.42
2019-02-16T15:56:58.885Z,23.77
2019-02-16T15:59:35.067Z,29.48
2019-02-16T16:02:01.377Z,25.23
2019-02-16T16:04:31.664Z,27.60
2019-02-16T16:07:03.330Z,27.95
2019-02-16T16:09:47.283Z,45.25
2019-02-16T16:12:34.213Z,44.45
2019-02-16T16:15:06.715Z,27.52
2019-02-16T16:17:47.911Z,28.57
2019-02-16T16:20:30.410Z,30.95
2019-02-16T16:23:11.210Z,32.48
2019-02-16T16:25:52.226Z,29.12
2019-02-16T16:28:24.088Z,35.98
2019-02-16T16:30:55.926Z,50.12
2019-02-16T16:33:30.840Z,65.22
2019-02-16T16:36:11.548Z,59.20
2019-02-16T16:38:55.503Z,57.98
2019-02-16T16:41:27.264Z,54.83
2019-02-16T16:44:01.826Z,45.05
2019-02-16T16:46:50.215Z,48.45
2019-02-16T16:49:30.868Z,38.13
2019-02-16T16:52:02.766Z,31.68
2019-02-16T16:54:46.563Z,30.57
2019-02-16T16:57:24.153Z,27.52
2019-02-16T17:00:02.273Z,33.85
2019-02-16T17:02:50.587Z,42.08
2019-02-16T17:05:38.407Z,37.30
2019-02-16T17:08:28.603Z,32.15
2019-02-16T17:11:06.496Z,32.05
2019-02-16T17:13:44.367Z,38.25
2019-02-16T17:16:22.083Z,40.73
2019-02-16T17:19:03.346Z,47.40
2019-02-16T17:21:38.543Z,47.90
2019-02-16T17:24:19.688Z,56.18
2019-02-16T17:27:07.992Z,50.20
2019-02-16T17:29:58.203Z,61.75
2019-02-16T17:32:33.168Z,102.17
2019-02-16T17:35:22.339Z,86.57
2019-02-16T17:37:54.202Z,101.35
2019-02-16T17:40:26.134Z,123.82
2019-02-16T17:43:07.357Z,128.50
2019-02-16T17:45:41.894Z,118.82
2019-02-16T17:48:25.920Z,114.08
2019-02-16T17:51:01.766Z,117.75
2019-02-16T17:53:39.917Z,112.55
2019-02-16T17:56:28.382Z,118.30
2019-02-16T17:59:02.908Z,126.67
2019-02-16T18:01:49.920Z,115.12
2019-02-16T18:04:36.644Z,121.28
2019-02-16T18:07:25.301Z,113.90
2019-02-16T18:10:06.519Z,135.15
2019-02-16T18:12:47.175Z,133.97
2019-02-16T18:15:18.689Z,151.22
2019-02-16T18:17:56.207Z,167.72
2019-02-16T18:20:33.789Z,162.85
2019-02-16T18:23:08.650Z,158.90
2019-02-16T18:25:53.960Z,148.20
2019-02-16T18:28:25.809Z,156.43
2019-02-16T18:31:03.769Z,96.55
2019-02-16T18:33:51.982Z,131.10
2019-02-16T18:36:26.371Z,103.25
2019-02-16T18:39:07.093Z,171.50
2019-02-16T18:41:54.462Z,175.27
2019-02-16T18:44:32.124Z,180.25
2019-02-16T18:47:04.130Z,194.93
2019-02-16T18:49:36.145Z,200.78
2019-02-16T18:52:24.499Z,201.10
2019-02-16T18:54:56.313Z,209.18
2019-02-16T18:57:44.992Z,202.07
2019-02-16T19:00:16.948Z,205.10
2019-02-16T19:02:51.972Z,206.38
2019-02-16T19:05:33.603Z,156.12
2019-02-16T19:08:20.887Z,114.67
2019-02-16T19:11:07.980Z,144.32
2019-02-16T19:13:40.003Z,87.97
2019-02-16T19:16:17.724Z,119.62
2019-02-16T19:18:52.392Z,80.25
2019-02-16T19:21:40.939Z,90.45
2019-02-16T19:24:28.832Z,83.27
2019-02-16T19:27:17.553Z,150.15
2019-02-16T19:30:07.811Z,120.25
2019-02-16T19:32:49.666Z,115.50
2019-02-16T19:35:21.560Z,130.50
2019-02-16T19:37:56.129Z,129.82
2019-02-16T19:40:28.422Z,134.55
2019-02-16T19:43:09.208Z,179.95
2019-02-16T19:45:44.045Z,237.72
2019-02-16T19:48:16.846Z,150.00
2019-02-16T19:50:54.839Z,142.95
2019-02-16T19:53:32.476Z,126.15
2019-02-16T19:56:22.891Z,134.90
2019-02-16T19:58:54.830Z,143.05
2019-02-16T20:01:32.643Z,133.07
2019-02-16T20:04:10.476Z,139.22
2019-02-16T20:06:42.385Z,138.25
2019-02-16T20:09:30.945Z,140.15
2019-02-16T20:12:02.823Z,147.60
2019-02-16T20:14:43.776Z,149.53
2019-02-16T20:17:32.105Z,155.18
2019-02-16T20:20:03.981Z,153.32
2019-02-16T20:22:41.647Z,144.72
2019-02-16T20:25:13.943Z,149.72
2019-02-16T20:27:45.842Z,160.60
2019-02-16T20:30:17.713Z,155.85
2019-02-16T20:32:50.654Z,155.10
2019-02-16T20:35:25.546Z,162.97
2019-02-16T20:37:57.367Z,164.75
2019-02-16T20:40:30.918Z,167.45
2019-02-16T20:43:05.838Z,164.28
2019-02-16T20:45:37.592Z,160.93
2019-02-16T20:48:24.673Z,166.05
2019-02-16T20:50:56.605Z,179.87
2019-02-16T20:53:34.705Z,170.47
2019-02-16T20:56:06.682Z,181.87
2019-02-16T20:58:55.164Z,180.67
2019-02-16T21:01:27.002Z,177.40
2019-02-16T21:03:59.060Z,176.30
2019-02-16T21:06:31.358Z,179.90
2019-02-16T21:09:09.212Z,187.00
2019-02-16T21:11:43.948Z,180.22
2019-02-16T21:14:25.171Z,189.15
2019-02-16T21:16:56.960Z,184.18
2019-02-16T21:19:37.754Z,184.80
2019-02-16T21:22:15.774Z,190.25
2019-02-16T21:24:48.044Z,179.42
2019-02-16T21:27:22.612Z,183.68
2019-02-16T21:30:11.002Z,184.95
2019-02-16T21:32:55.291Z,191.88
2019-02-16T21:35:34.176Z,182.25
2019-02-16T21:38:06.048Z,208.25
2019-02-16T21:40:56.236Z,186.60
2019-02-16T21:43:44.368Z,202.80
2019-02-16T21:46:32.206Z,198.93
2019-02-16T21:49:20.210Z,191.05
2019-02-16T21:52:01.022Z,188.72
2019-02-16T21:54:32.893Z,184.13
2019-02-16T21:57:13.629Z,198.28
2019-02-16T21:59:52.613Z,189.77
2019-02-16T22:02:30.644Z,196.95
2019-02-16T22:05:08.157Z,196.28
2019-02-16T22:07:56.298Z,198.38
2019-02-16T22:10:28.165Z,208.72
2019-02-16T22:13:00.126Z,217.75
2019-02-16T22:15:30.532Z,212.88
2019-02-16T22:18:01.160Z,211.45
2019-02-16T22:20:31.486Z,222.55
2019-02-16T22:23:02.756Z,215.28
2019-02-16T22:25:33.039Z,223.10
2019-02-16T22:28:03.285Z,222.85
2019-02-16T22:30:33.513Z,219.28
2019-02-16T22:33:03.810Z,216.70
2019-02-16T22:35:35.019Z,211.77
2019-02-16T22:38:05.435Z,218.33
2019-02-16T22:40:35.707Z,215.45
2019-02-16T22:43:06.040Z,217.70
2019-02-16T22:45:36.371Z,214.95
2019-02-16T22:48:06.797Z,206.85
2019-02-16T22:50:37.098Z,223.93
2019-02-16T22:53:07.234Z,208.78
2019-02-16T22:55:37.485Z,210.85
2019-02-16T22:58:07.717Z,202.20
2019-02-16T23:00:45.144Z,221.85
2019-02-16T23:03:17.371Z,217.65
2019-02-16T23:05:47.883Z,231.90
2019-02-16T23:08:18.093Z,227.57
2019-02-16T23:10:48.644Z,226.50
2019-02-16T23:13:18.896Z,221.70
2019-02-16T23:15:49.142Z,216.10
2019-02-16T23:18:19.861Z,218.15
2019-02-16T23:20:50.145Z,220.12
2019-02-16T23:23:20.573Z,216.88
2019-02-16T23:25:52.418Z,221.18
2019-02-16T23:28:22.802Z,215.32
2019-02-16T23:30:53.150Z,212.00
2019-02-16T23:33:23.545Z,209.92
2019-02-16T23:35:54.758Z,209.83
2019-02-16T23:38:25.067Z,216.40
2019-02-16T23:40:55.335Z,228.02
2019-02-16T23:43:25.635Z,224.00
2019-02-16T23:45:55.857Z,236.43
2019-02-16T23:48:26.138Z,228.73
2019-02-16T23:50:56.375Z,217.35
2019-02-16T23:53:26.625Z,233.30
2019-02-16T23:55:56.867Z,229.13
2019-02-16T23:58:27.803Z,225.32
